KPLR/PLR METAR and TAF weather

Enter ICAO airport designator
Station Type Date Time Source
KPLR METAR 2021/09/24 02:55 UTC NOAA

KPLR 240255Z AUTO 00000KT 10SM FEW035 FEW042 12/11 A3009 RMK A01 P0019


Station Type Date Time Source
KPLR Decoded METAR 2021/09/24 02:55 UTC NOAA

Station name not available
Sep 23, 2021 - 10:55 PM EDT / 2021.09.24 0255 UTC
Wind: Calm:0
Visibility: 10 mile(s):0
Sky conditions: mostly clear
Precipitation last hour: 0.19 inches
Temperature: 53 F (12 C)
Dew Point: 51 F (11 C)
Relative Humidity: 93%
Pressure (altimeter): 30.09 in. Hg (1018 hPa)
ob: KPLR 240255Z AUTO 00000KT 10SM FEW035 FEW042 12/11 A3009 RMK A01 P0019
cycle: 3

Station Type Date Time Source
KPLR TAF UTC NOAA

Error!

Example: see airport list